sensor_id;sensor_type;location;lat;lon;timestamp;temperature;humidity
52231;DHT22;38192;50.102;19.884;2022-07-29T00:01:23;17.50;99.90
52231;DHT22;38192;50.102;19.884;2022-07-29T00:03:49;17.60;99.90
52231;DHT22;38192;50.102;19.884;2022-07-29T00:06:15;17.50;99.90
52231;DHT22;38192;50.102;19.884;2022-07-29T00:08:41;17.50;99.90
52231;DHT22;38192;50.102;19.884;2022-07-29T00:11:07;17.60;99.90
52231;DHT22;38192;50.102;19.884;2022-07-29T00:13:33;17.60;99.90
52231;DHT22;38192;50.102;19.884;2022-07-29T00:15:59;17.60;99.90
52231;DHT22;38192;50.102;19.884;2022-07-29T00:18:25;17.60;99.90
52231;DHT22;38192;50.102;19.884;2022-07-29T00:20:51;17.60;99.90
52231;DHT22;38192;50.102;19.884;2022-07-29T00:23:17;17.60;99.90
52231;DHT22;38192;50.102;19.884;2022-07-29T00:25:43;17.60;99.90
52231;DHT22;38192;50.102;19.884;2022-07-29T00:28:08;17.60;99.90
52231;DHT22;38192;50.102;19.884;2022-07-29T00:30:34;17.70;99.90
52231;DHT22;38192;50.102;19.884;2022-07-29T00:33:00;17.70;99.90
52231;DHT22;38192;50.102;19.884;2022-07-29T00:35:26;17.80;99.90
52231;DHT22;38192;50.102;19.884;2022-07-29T00:38:19;17.80;99.90
52231;DHT22;38192;50.102;19.884;2022-07-29T00:40:46;17.80;99.90
52231;DHT22;38192;50.102;19.884;2022-07-29T00:43:13;17.80;99.90
52231;DHT22;38192;50.102;19.884;2022-07-29T00:45:41;17.90;99.90
52231;DHT22;38192;50.102;19.884;2022-07-29T00:48:06;17.90;99.90
52231;DHT22;38192;50.102;19.884;2022-07-29T00:50:35;18.00;99.90
52231;DHT22;38192;50.102;19.884;2022-07-29T00:53:02;18.00;99.90
52231;DHT22;38192;50.102;19.884;2022-07-29T00:55:29;18.00;99.90
52231;DHT22;38192;50.102;19.884;2022-07-29T00:57:55;18.10;99.90
52231;DHT22;38192;50.102;19.884;2022-07-29T01:00:24;18.10;99.90
52231;DHT22;38192;50.102;19.884;2022-07-29T01:02:50;18.20;99.90
52231;DHT22;38192;50.102;19.884;2022-07-29T01:05:18;18.20;99.90
52231;DHT22;38192;50.102;19.884;2022-07-29T01:07:45;18.20;99.90
52231;DHT22;38192;50.102;19.884;2022-07-29T01:10:12;18.30;99.90
52231;DHT22;38192;50.102;19.884;2022-07-29T01:12:40;18.30;99.90
52231;DHT22;38192;50.102;19.884;2022-07-29T01:15:07;18.30;99.90
52231;DHT22;38192;50.102;19.884;2022-07-29T01:17:39;18.40;99.90
52231;DHT22;38192;50.102;19.884;2022-07-29T01:28:52;18.50;99.80
52231;DHT22;38192;50.102;19.884;2022-07-29T01:31:35;18.50;99.70
52231;DHT22;38192;50.102;19.884;2022-07-29T01:34:07;18.50;99.50
52231;DHT22;38192;50.102;19.884;2022-07-29T01:36:43;18.50;99.30
52231;DHT22;38192;50.102;19.884;2022-07-29T01:41:43;18.60;99.20
52231;DHT22;38192;50.102;19.884;2022-07-29T01:44:20;18.60;99.10
52231;DHT22;38192;50.102;19.884;2022-07-29T01:47:00;18.60;98.80
52231;DHT22;38192;50.102;19.884;2022-07-29T01:49:29;18.70;98.80
52231;DHT22;38192;50.102;19.884;2022-07-29T01:52:03;18.70;98.50
52231;DHT22;38192;50.102;19.884;2022-07-29T01:54:42;18.70;98.50
52231;DHT22;38192;50.102;19.884;2022-07-29T01:57:12;18.70;98.60
52231;DHT22;38192;50.102;19.884;2022-07-29T01:59:39;18.70;98.40
52231;DHT22;38192;50.102;19.884;2022-07-29T02:02:07;18.70;98.10
52231;DHT22;38192;50.102;19.884;2022-07-29T02:04:35;18.70;98.00
52231;DHT22;38192;50.102;19.884;2022-07-29T02:07:05;18.70;97.90
52231;DHT22;38192;50.102;19.884;2022-07-29T02:09:34;18.60;97.90
52231;DHT22;38192;50.102;19.884;2022-07-29T02:12:03;18.60;97.90
52231;DHT22;38192;50.102;19.884;2022-07-29T02:14:36;18.60;97.90
52231;DHT22;38192;50.102;19.884;2022-07-29T02:17:02;18.60;98.30
52231;DHT22;38192;50.102;19.884;2022-07-29T02:19:32;18.50;98.00
52231;DHT22;38192;50.102;19.884;2022-07-29T02:21:59;18.50;98.20
52231;DHT22;38192;50.102;19.884;2022-07-29T02:24:26;18.50;98.20
52231;DHT22;38192;50.102;19.884;2022-07-29T02:26:55;18.50;98.30
52231;DHT22;38192;50.102;19.884;2022-07-29T02:29:24;18.50;98.40
52231;DHT22;38192;50.102;19.884;2022-07-29T02:31:51;18.40;98.50
52231;DHT22;38192;50.102;19.884;2022-07-29T02:34:19;18.30;98.50
52231;DHT22;38192;50.102;19.884;2022-07-29T02:36:47;18.30;98.70
52231;DHT22;38192;50.102;19.884;2022-07-29T02:39:14;18.30;99.40
52231;DHT22;38192;50.102;19.884;2022-07-29T02:44:17;18.20;99.70
52231;DHT22;38192;50.102;19.884;2022-07-29T02:46:53;18.20;99.90
52231;DHT22;38192;50.102;19.884;2022-07-29T02:51:53;18.20;99.60
52231;DHT22;38192;50.102;19.884;2022-07-29T02:54:34;18.10;99.50
52231;DHT22;38192;50.102;19.884;2022-07-29T02:57:09;18.10;99.60
52231;DHT22;38192;50.102;19.884;2022-07-29T02:59:37;18.00;99.50
52231;DHT22;38192;50.102;19.884;2022-07-29T03:02:08;18.00;99.80
52231;DHT22;38192;50.102;19.884;2022-07-29T03:04:35;18.00;99.80
52231;DHT22;38192;50.102;19.884;2022-07-29T03:07:03;18.00;99.90
52231;DHT22;38192;50.102;19.884;2022-07-29T03:09:30;18.00;99.90
52231;DHT22;38192;50.102;19.884;2022-07-29T03:11:57;17.90;99.90
52231;DHT22;38192;50.102;19.884;2022-07-29T03:14:24;17.90;99.90
52231;DHT22;38192;50.102;19.884;2022-07-29T03:16:50;17.90;99.90
52231;DHT22;38192;50.102;19.884;2022-07-29T03:19:18;17.90;99.90
52231;DHT22;38192;50.102;19.884;2022-07-29T03:21:44;17.90;99.90
52231;DHT22;38192;50.102;19.884;2022-07-29T03:24:09;17.90;99.90
52231;DHT22;38192;50.102;19.884;2022-07-29T03:26:35;17.90;99.90
52231;DHT22;38192;50.102;19.884;2022-07-29T03:29:01;17.90;99.90
52231;DHT22;38192;50.102;19.884;2022-07-29T03:31:27;17.90;99.90
52231;DHT22;38192;50.102;19.884;2022-07-29T03:33:53;17.90;99.90
52231;DHT22;38192;50.102;19.884;2022-07-29T03:36:19;17.90;99.90
52231;DHT22;38192;50.102;19.884;2022-07-29T03:38:45;18.00;99.90
52231;DHT22;38192;50.102;19.884;2022-07-29T03:41:13;18.00;99.90
52231;DHT22;38192;50.102;19.884;2022-07-29T03:43:41;18.00;99.90
52231;DHT22;38192;50.102;19.884;2022-07-29T03:46:09;18.00;99.90
52231;DHT22;38192;50.102;19.884;2022-07-29T03:48:38;18.00;99.90
52231;DHT22;38192;50.102;19.884;2022-07-29T03:51:05;18.10;99.90
52231;DHT22;38192;50.102;19.884;2022-07-29T03:53:32;18.10;99.90
52231;DHT22;38192;50.102;19.884;2022-07-29T03:56:02;18.10;99.90
52231;DHT22;38192;50.102;19.884;2022-07-29T03:58:30;18.10;99.90
52231;DHT22;38192;50.102;19.884;2022-07-29T04:00:57;18.20;99.90
52231;DHT22;38192;50.102;19.884;2022-07-29T04:03:23;18.20;99.90
52231;DHT22;38192;50.102;19.884;2022-07-29T04:06:06;18.20;99.90
52231;DHT22;38192;50.102;19.884;2022-07-29T04:08:33;18.20;99.90
52231;DHT22;38192;50.102;19.884;2022-07-29T04:11:00;18.30;99.90
52231;DHT22;38192;50.102;19.884;2022-07-29T04:13:27;18.30;99.90
52231;DHT22;38192;50.102;19.884;2022-07-29T04:15:53;18.30;99.90
52231;DHT22;38192;50.102;19.884;2022-07-29T04:18:18;18.30;99.90
52231;DHT22;38192;50.102;19.884;2022-07-29T04:20:44;18.30;99.90
52231;DHT22;38192;50.102;19.884;2022-07-29T04:23:10;18.40;99.90
52231;DHT22;38192;50.102;19.884;2022-07-29T04:25:40;18.40;99.90
52231;DHT22;38192;50.102;19.884;2022-07-29T04:28:06;18.40;99.90
52231;DHT22;38192;50.102;19.884;2022-07-29T04:30:33;18.50;99.90
52231;DHT22;38192;50.102;19.884;2022-07-29T04:33:04;18.50;99.90
52231;DHT22;38192;50.102;19.884;2022-07-29T04:35:33;18.50;99.90
52231;DHT22;38192;50.102;19.884;2022-07-29T04:37:59;18.50;99.90
52231;DHT22;38192;50.102;19.884;2022-07-29T04:40:25;18.60;99.90
52231;DHT22;38192;50.102;19.884;2022-07-29T04:42:51;18.60;99.90
52231;DHT22;38192;50.102;19.884;2022-07-29T04:45:17;18.70;99.90
52231;DHT22;38192;50.102;19.884;2022-07-29T04:47:43;18.70;99.90
52231;DHT22;38192;50.102;19.884;2022-07-29T04:50:09;18.70;99.90
52231;DHT22;38192;50.102;19.884;2022-07-29T04:52:35;18.80;99.90
52231;DHT22;38192;50.102;19.884;2022-07-29T04:55:02;18.80;99.80
52231;DHT22;38192;50.102;19.884;2022-07-29T04:57:28;18.90;99.80
52231;DHT22;38192;50.102;19.884;2022-07-29T04:59:54;18.90;99.60
52231;DHT22;38192;50.102;19.884;2022-07-29T05:02:20;19.00;98.80
52231;DHT22;38192;50.102;19.884;2022-07-29T05:04:47;19.10;98.90
52231;DHT22;38192;50.102;19.884;2022-07-29T05:07:13;19.10;98.90
52231;DHT22;38192;50.102;19.884;2022-07-29T05:09:40;19.20;98.60
52231;DHT22;38192;50.102;19.884;2022-07-29T05:12:06;19.30;98.40
52231;DHT22;38192;50.102;19.884;2022-07-29T05:14:32;19.30;97.70
52231;DHT22;38192;50.102;19.884;2022-07-29T05:16:58;19.40;97.30
52231;DHT22;38192;50.102;19.884;2022-07-29T05:19:24;19.50;96.90
52231;DHT22;38192;50.102;19.884;2022-07-29T05:21:50;19.60;96.60
52231;DHT22;38192;50.102;19.884;2022-07-29T05:24:16;19.60;96.10
52231;DHT22;38192;50.102;19.884;2022-07-29T05:26:42;19.80;95.30
52231;DHT22;38192;50.102;19.884;2022-07-29T05:29:08;19.80;94.20
52231;DHT22;38192;50.102;19.884;2022-07-29T05:31:34;19.90;93.10
52231;DHT22;38192;50.102;19.884;2022-07-29T05:34:00;19.90;92.90
52231;DHT22;38192;50.102;19.884;2022-07-29T05:36:26;19.90;92.70
52231;DHT22;38192;50.102;19.884;2022-07-29T05:38:52;20.00;92.80
52231;DHT22;38192;50.102;19.884;2022-07-29T05:41:21;20.10;91.90
52231;DHT22;38192;50.102;19.884;2022-07-29T05:43:46;20.10;92.00
52231;DHT22;38192;50.102;19.884;2022-07-29T05:46:12;20.10;92.20
52231;DHT22;38192;50.102;19.884;2022-07-29T05:48:39;20.20;92.20
52231;DHT22;38192;50.102;19.884;2022-07-29T05:51:05;20.30;92.10
52231;DHT22;38192;50.102;19.884;2022-07-29T05:53:31;20.30;92.40
52231;DHT22;38192;50.102;19.884;2022-07-29T05:55:57;20.40;92.40
52231;DHT22;38192;50.102;19.884;2022-07-29T05:58:23;20.50;92.40
52231;DHT22;38192;50.102;19.884;2022-07-29T06:00:49;20.50;91.70
52231;DHT22;38192;50.102;19.884;2022-07-29T06:03:15;20.60;91.50
52231;DHT22;38192;50.102;19.884;2022-07-29T06:05:41;20.70;91.40
52231;DHT22;38192;50.102;19.884;2022-07-29T06:08:07;20.70;91.40
52231;DHT22;38192;50.102;19.884;2022-07-29T06:10:34;20.80;92.20
52231;DHT22;38192;50.102;19.884;2022-07-29T06:13:00;20.90;92.70
52231;DHT22;38192;50.102;19.884;2022-07-29T06:15:27;21.00;92.40
52231;DHT22;38192;50.102;19.884;2022-07-29T06:17:56;21.10;91.40
52231;DHT22;38192;50.102;19.884;2022-07-29T06:20:22;21.20;90.90
52231;DHT22;38192;50.102;19.884;2022-07-29T06:22:48;21.30;90.70
52231;DHT22;38192;50.102;19.884;2022-07-29T06:25:14;21.30;90.40
52231;DHT22;38192;50.102;19.884;2022-07-29T06:27:40;21.50;90.70
52231;DHT22;38192;50.102;19.884;2022-07-29T06:30:06;21.50;90.80
52231;DHT22;38192;50.102;19.884;2022-07-29T06:32:35;21.60;90.60
52231;DHT22;38192;50.102;19.884;2022-07-29T06:35:01;21.70;89.30
52231;DHT22;38192;50.102;19.884;2022-07-29T06:37:27;21.80;88.70
52231;DHT22;38192;50.102;19.884;2022-07-29T06:39:53;21.80;88.10
52231;DHT22;38192;50.102;19.884;2022-07-29T06:42:43;21.90;89.00
52231;DHT22;38192;50.102;19.884;2022-07-29T06:45:10;22.00;88.60
52231;DHT22;38192;50.102;19.884;2022-07-29T06:47:36;22.10;88.20
52231;DHT22;38192;50.102;19.884;2022-07-29T06:50:03;22.20;87.30
52231;DHT22;38192;50.102;19.884;2022-07-29T06:52:29;22.30;86.90
52231;DHT22;38192;50.102;19.884;2022-07-29T06:54:55;22.50;87.90
52231;DHT22;38192;50.102;19.884;2022-07-29T06:57:21;22.60;86.40
52231;DHT22;38192;50.102;19.884;2022-07-29T06:59:47;22.80;86.60
52231;DHT22;38192;50.102;19.884;2022-07-29T07:02:13;23.00;85.50
52231;DHT22;38192;50.102;19.884;2022-07-29T07:04:39;23.10;82.90
52231;DHT22;38192;50.102;19.884;2022-07-29T07:07:05;23.30;81.30
52231;DHT22;38192;50.102;19.884;2022-07-29T07:09:31;23.40;80.90
52231;DHT22;38192;50.102;19.884;2022-07-29T07:11:57;23.50;81.30
52231;DHT22;38192;50.102;19.884;2022-07-29T07:14:22;23.70;81.00
52231;DHT22;38192;50.102;19.884;2022-07-29T07:16:48;23.80;80.50
52231;DHT22;38192;50.102;19.884;2022-07-29T07:19:14;24.00;80.20
52231;DHT22;38192;50.102;19.884;2022-07-29T07:21:40;24.20;81.20
52231;DHT22;38192;50.102;19.884;2022-07-29T07:24:06;24.50;79.40
52231;DHT22;38192;50.102;19.884;2022-07-29T07:26:32;24.80;77.90
52231;DHT22;38192;50.102;19.884;2022-07-29T07:28:58;25.20;76.00
52231;DHT22;38192;50.102;19.884;2022-07-29T07:31:24;25.70;73.30
52231;DHT22;38192;50.102;19.884;2022-07-29T07:33:50;26.10;71.00
52231;DHT22;38192;50.102;19.884;2022-07-29T07:36:17;26.60;69.10
52231;DHT22;38192;50.102;19.884;2022-07-29T07:38:43;26.90;67.00
52231;DHT22;38192;50.102;19.884;2022-07-29T07:41:09;27.10;65.40
52231;DHT22;38192;50.102;19.884;2022-07-29T07:43:35;27.10;64.70
52231;DHT22;38192;50.102;19.884;2022-07-29T07:46:01;27.00;65.20
52231;DHT22;38192;50.102;19.884;2022-07-29T07:48:26;27.20;65.20
52231;DHT22;38192;50.102;19.884;2022-07-29T07:50:52;27.40;65.30
52231;DHT22;38192;50.102;19.884;2022-07-29T07:53:18;27.70;64.20
52231;DHT22;38192;50.102;19.884;2022-07-29T07:55:45;28.00;62.90
52231;DHT22;38192;50.102;19.884;2022-07-29T07:58:11;28.30;62.10
52231;DHT22;38192;50.102;19.884;2022-07-29T08:00:37;28.60;61.30
52231;DHT22;38192;50.102;19.884;2022-07-29T08:03:03;28.90;60.00
52231;DHT22;38192;50.102;19.884;2022-07-29T08:05:29;29.20;59.40
52231;DHT22;38192;50.102;19.884;2022-07-29T08:07:55;29.40;58.30
52231;DHT22;38192;50.102;19.884;2022-07-29T08:10:21;29.70;57.70
52231;DHT22;38192;50.102;19.884;2022-07-29T08:13:07;29.90;57.10
52231;DHT22;38192;50.102;19.884;2022-07-29T08:15:33;30.20;56.60
52231;DHT22;38192;50.102;19.884;2022-07-29T08:17:59;30.40;56.50
52231;DHT22;38192;50.102;19.884;2022-07-29T08:20:25;30.60;55.20
52231;DHT22;38192;50.102;19.884;2022-07-29T08:22:51;30.70;54.50
52231;DHT22;38192;50.102;19.884;2022-07-29T08:25:18;30.70;54.40
52231;DHT22;38192;50.102;19.884;2022-07-29T08:27:46;30.70;54.30
52231;DHT22;38192;50.102;19.884;2022-07-29T08:30:12;30.70;54.30
52231;DHT22;38192;50.102;19.884;2022-07-29T08:32:39;30.70;54.00
52231;DHT22;38192;50.102;19.884;2022-07-29T08:35:05;30.80;54.20
52231;DHT22;38192;50.102;19.884;2022-07-29T08:37:31;30.80;53.90
52231;DHT22;38192;50.102;19.884;2022-07-29T08:39:57;30.80;53.80
52231;DHT22;38192;50.102;19.884;2022-07-29T08:42:23;30.80;53.80
52231;DHT22;38192;50.102;19.884;2022-07-29T08:44:48;30.80;53.90
52231;DHT22;38192;50.102;19.884;2022-07-29T08:47:16;30.90;54.70
52231;DHT22;38192;50.102;19.884;2022-07-29T08:49:43;31.00;53.00
52231;DHT22;38192;50.102;19.884;2022-07-29T08:52:11;31.10;53.00
52231;DHT22;38192;50.102;19.884;2022-07-29T08:54:39;31.10;53.10
52231;DHT22;38192;50.102;19.884;2022-07-29T08:57:06;31.20;53.00
52231;DHT22;38192;50.102;19.884;2022-07-29T08:59:33;31.40;52.40
52231;DHT22;38192;50.102;19.884;2022-07-29T09:02:00;31.30;52.00
52231;DHT22;38192;50.102;19.884;2022-07-29T09:04:31;31.20;52.30
52231;DHT22;38192;50.102;19.884;2022-07-29T09:07:00;31.20;52.50
52231;DHT22;38192;50.102;19.884;2022-07-29T09:09:29;31.20;52.30
52231;DHT22;38192;50.102;19.884;2022-07-29T09:11:55;31.20;52.40
52231;DHT22;38192;50.102;19.884;2022-07-29T09:14:21;31.20;52.30
52231;DHT22;38192;50.102;19.884;2022-07-29T09:16:49;31.20;52.20
52231;DHT22;38192;50.102;19.884;2022-07-29T09:19:23;31.20;52.60
52231;DHT22;38192;50.102;19.884;2022-07-29T09:21:49;31.20;52.70
52231;DHT22;38192;50.102;19.884;2022-07-29T09:24:40;31.10;52.50
52231;DHT22;38192;50.102;19.884;2022-07-29T09:27:25;31.00;52.90
52231;DHT22;38192;50.102;19.884;2022-07-29T09:32:27;30.90;53.30
52231;DHT22;38192;50.102;19.884;2022-07-29T09:35:16;30.80;53.40
52231;DHT22;38192;50.102;19.884;2022-07-29T09:37:43;30.80;53.80
52231;DHT22;38192;50.102;19.884;2022-07-29T09:40:20;30.70;53.60
52231;DHT22;38192;50.102;19.884;2022-07-29T09:42:47;30.70;53.50
52231;DHT22;38192;50.102;19.884;2022-07-29T09:45:30;30.70;53.50
52231;DHT22;38192;50.102;19.884;2022-07-29T09:47:57;30.80;54.10
52231;DHT22;38192;50.102;19.884;2022-07-29T09:50:39;30.80;53.30
52231;DHT22;38192;50.102;19.884;2022-07-29T09:53:05;30.80;53.50
52231;DHT22;38192;50.102;19.884;2022-07-29T09:55:31;30.80;53.50
52231;DHT22;38192;50.102;19.884;2022-07-29T09:58:20;30.90;53.90
52231;DHT22;38192;50.102;19.884;2022-07-29T10:00:48;30.80;53.80
52231;DHT22;38192;50.102;19.884;2022-07-29T10:03:15;30.70;53.60
52231;DHT22;38192;50.102;19.884;2022-07-29T10:05:42;30.80;54.00
52231;DHT22;38192;50.102;19.884;2022-07-29T10:08:10;30.80;54.20
52231;DHT22;38192;50.102;19.884;2022-07-29T10:10:42;30.80;54.10
52231;DHT22;38192;50.102;19.884;2022-07-29T10:13:13;30.80;54.00
52231;DHT22;38192;50.102;19.884;2022-07-29T10:15:41;30.70;53.60
52231;DHT22;38192;50.102;19.884;2022-07-29T10:18:10;30.70;54.00
52231;DHT22;38192;50.102;19.884;2022-07-29T10:20:37;30.70;54.40
52231;DHT22;38192;50.102;19.884;2022-07-29T10:23:04;30.60;54.60
52231;DHT22;38192;50.102;19.884;2022-07-29T10:25:30;30.60;54.80
52231;DHT22;38192;50.102;19.884;2022-07-29T10:27:56;30.70;54.70
52231;DHT22;38192;50.102;19.884;2022-07-29T10:30:24;30.70;54.40
52231;DHT22;38192;50.102;19.884;2022-07-29T10:35:48;30.70;54.50
52231;DHT22;38192;50.102;19.884;2022-07-29T10:44:09;31.00;54.00
52231;DHT22;38192;50.102;19.884;2022-07-29T10:46:39;31.00;53.90
52231;DHT22;38192;50.102;19.884;2022-07-29T10:57:21;30.90;53.90
52231;DHT22;38192;50.102;19.884;2022-07-29T10:59:50;31.00;54.00
52231;DHT22;38192;50.102;19.884;2022-07-29T11:05:14;31.10;54.10
52231;DHT22;38192;50.102;19.884;2022-07-29T11:10:43;31.20;54.10
52231;DHT22;38192;50.102;19.884;2022-07-29T11:13:09;31.20;53.40
52231;DHT22;38192;50.102;19.884;2022-07-29T11:15:54;31.20;53.50
52231;DHT22;38192;50.102;19.884;2022-07-29T11:18:20;31.10;53.50
52231;DHT22;38192;50.102;19.884;2022-07-29T11:20:48;30.90;53.80
52231;DHT22;38192;50.102;19.884;2022-07-29T11:23:30;30.80;54.10
52231;DHT22;38192;50.102;19.884;2022-07-29T11:26:18;30.60;54.40
52231;DHT22;38192;50.102;19.884;2022-07-29T11:28:50;30.50;55.90
52231;DHT22;38192;50.102;19.884;2022-07-29T11:31:40;30.40;55.50
52231;DHT22;38192;50.102;19.884;2022-07-29T11:39:43;30.40;56.50
52231;DHT22;38192;50.102;19.884;2022-07-29T11:47:24;30.50;56.20
52231;DHT22;38192;50.102;19.884;2022-07-29T11:49:51;30.60;56.50
52231;DHT22;38192;50.102;19.884;2022-07-29T11:52:18;30.80;55.80
52231;DHT22;38192;50.102;19.884;2022-07-29T11:54:48;30.80;56.20
52231;DHT22;38192;50.102;19.884;2022-07-29T11:57:18;30.90;55.60
52231;DHT22;38192;50.102;19.884;2022-07-29T11:59:47;31.00;55.00
52231;DHT22;38192;50.102;19.884;2022-07-29T12:02:14;31.10;55.10
52231;DHT22;38192;50.102;19.884;2022-07-29T12:04:55;31.20;54.60
52231;DHT22;38192;50.102;19.884;2022-07-29T12:07:32;31.20;54.50
52231;DHT22;38192;50.102;19.884;2022-07-29T12:09:59;31.20;54.40
52231;DHT22;38192;50.102;19.884;2022-07-29T12:12:25;31.20;55.00
52231;DHT22;38192;50.102;19.884;2022-07-29T12:14:51;31.40;54.90
52231;DHT22;38192;50.102;19.884;2022-07-29T12:17:32;31.50;53.70
52231;DHT22;38192;50.102;19.884;2022-07-29T12:20:03;31.50;53.30
52231;DHT22;38192;50.102;19.884;2022-07-29T12:22:35;31.50;53.30
52231;DHT22;38192;50.102;19.884;2022-07-29T12:25:11;31.50;53.80
52231;DHT22;38192;50.102;19.884;2022-07-29T12:27:38;31.50;54.40
52231;DHT22;38192;50.102;19.884;2022-07-29T12:30:09;31.50;53.90
52231;DHT22;38192;50.102;19.884;2022-07-29T12:32:38;31.50;53.80
52231;DHT22;38192;50.102;19.884;2022-07-29T12:35:10;31.60;53.70
52231;DHT22;38192;50.102;19.884;2022-07-29T12:37:38;31.70;53.40
52231;DHT22;38192;50.102;19.884;2022-07-29T12:40:06;31.80;53.20
52231;DHT22;38192;50.102;19.884;2022-07-29T12:42:32;31.90;53.00
52231;DHT22;38192;50.102;19.884;2022-07-29T12:44:58;31.90;53.00
52231;DHT22;38192;50.102;19.884;2022-07-29T12:47:24;31.90;52.80
52231;DHT22;38192;50.102;19.884;2022-07-29T12:50:07;32.00;52.80
52231;DHT22;38192;50.102;19.884;2022-07-29T12:52:35;31.90;52.20
52231;DHT22;38192;50.102;19.884;2022-07-29T12:55:01;31.90;52.70
52231;DHT22;38192;50.102;19.884;2022-07-29T12:57:28;31.90;53.90
52231;DHT22;38192;50.102;19.884;2022-07-29T13:00:08;31.80;53.80
52231;DHT22;38192;50.102;19.884;2022-07-29T13:02:40;31.80;54.20
52231;DHT22;38192;50.102;19.884;2022-07-29T13:05:08;31.80;54.40
52231;DHT22;38192;50.102;19.884;2022-07-29T13:07:35;31.80;54.00
52231;DHT22;38192;50.102;19.884;2022-07-29T13:10:13;31.80;53.50
52231;DHT22;38192;50.102;19.884;2022-07-29T13:13:06;31.70;53.60
52231;DHT22;38192;50.102;19.884;2022-07-29T13:15:35;31.60;53.50
52231;DHT22;38192;50.102;19.884;2022-07-29T13:18:01;31.40;53.80
52231;DHT22;38192;50.102;19.884;2022-07-29T13:20:29;31.40;54.10
52231;DHT22;38192;50.102;19.884;2022-07-29T13:23:00;31.30;54.40
52231;DHT22;38192;50.102;19.884;2022-07-29T13:25:28;31.30;55.10
52231;DHT22;38192;50.102;19.884;2022-07-29T13:27:55;31.40;55.00
52231;DHT22;38192;50.102;19.884;2022-07-29T13:30:21;31.40;55.60
52231;DHT22;38192;50.102;19.884;2022-07-29T13:32:49;31.50;55.60
52231;DHT22;38192;50.102;19.884;2022-07-29T13:35:15;31.60;54.90
52231;DHT22;38192;50.102;19.884;2022-07-29T13:37:41;31.70;54.40
52231;DHT22;38192;50.102;19.884;2022-07-29T13:40:08;31.70;54.30
52231;DHT22;38192;50.102;19.884;2022-07-29T13:42:35;31.70;54.60
52231;DHT22;38192;50.102;19.884;2022-07-29T13:45:01;31.80;54.00
52231;DHT22;38192;50.102;19.884;2022-07-29T13:47:28;31.70;54.10
52231;DHT22;38192;50.102;19.884;2022-07-29T13:49:56;31.70;53.70
52231;DHT22;38192;50.102;19.884;2022-07-29T13:52:22;31.70;54.30
52231;DHT22;38192;50.102;19.884;2022-07-29T13:54:48;31.60;54.60
52231;DHT22;38192;50.102;19.884;2022-07-29T13:57:14;31.60;55.10
52231;DHT22;38192;50.102;19.884;2022-07-29T13:59:41;31.60;55.00
52231;DHT22;38192;50.102;19.884;2022-07-29T14:02:08;31.60;55.10
52231;DHT22;38192;50.102;19.884;2022-07-29T14:04:34;31.60;54.40
52231;DHT22;38192;50.102;19.884;2022-07-29T14:07:00;31.50;54.50
52231;DHT22;38192;50.102;19.884;2022-07-29T14:09:26;31.40;54.50
52231;DHT22;38192;50.102;19.884;2022-07-29T14:11:52;31.30;54.90
52231;DHT22;38192;50.102;19.884;2022-07-29T14:14:18;31.30;55.50
52231;DHT22;38192;50.102;19.884;2022-07-29T14:16:44;31.30;55.40
52231;DHT22;38192;50.102;19.884;2022-07-29T14:19:10;31.20;55.20
52231;DHT22;38192;50.102;19.884;2022-07-29T14:21:37;31.10;55.20
52231;DHT22;38192;50.102;19.884;2022-07-29T14:24:04;31.00;55.90
52231;DHT22;38192;50.102;19.884;2022-07-29T14:26:29;30.90;56.10
52231;DHT22;38192;50.102;19.884;2022-07-29T14:28:55;30.80;55.60
52231;DHT22;38192;50.102;19.884;2022-07-29T14:31:21;30.80;55.80
52231;DHT22;38192;50.102;19.884;2022-07-29T14:33:47;30.80;56.00
52231;DHT22;38192;50.102;19.884;2022-07-29T14:36:13;30.70;56.10
52231;DHT22;38192;50.102;19.884;2022-07-29T14:38:39;30.70;57.00
52231;DHT22;38192;50.102;19.884;2022-07-29T14:41:07;30.60;56.70
52231;DHT22;38192;50.102;19.884;2022-07-29T14:43:34;30.60;57.50
52231;DHT22;38192;50.102;19.884;2022-07-29T14:46:03;30.60;57.10
52231;DHT22;38192;50.102;19.884;2022-07-29T14:48:28;30.50;57.20
52231;DHT22;38192;50.102;19.884;2022-07-29T14:50:54;30.50;57.70
52231;DHT22;38192;50.102;19.884;2022-07-29T14:53:22;30.60;57.70
52231;DHT22;38192;50.102;19.884;2022-07-29T14:55:48;30.60;57.10
52231;DHT22;38192;50.102;19.884;2022-07-29T14:58:14;30.60;56.70
52231;DHT22;38192;50.102;19.884;2022-07-29T15:00:40;30.60;56.90
52231;DHT22;38192;50.102;19.884;2022-07-29T15:03:06;30.60;56.40
52231;DHT22;38192;50.102;19.884;2022-07-29T15:05:34;30.50;56.60
52231;DHT22;38192;50.102;19.884;2022-07-29T15:08:00;30.50;56.60
52231;DHT22;38192;50.102;19.884;2022-07-29T15:10:26;30.50;56.90
52231;DHT22;38192;50.102;19.884;2022-07-29T15:12:53;30.40;56.20
52231;DHT22;38192;50.102;19.884;2022-07-29T15:15:19;30.40;56.40
52231;DHT22;38192;50.102;19.884;2022-07-29T15:17:45;30.30;56.60
52231;DHT22;38192;50.102;19.884;2022-07-29T15:20:14;30.20;56.70
52231;DHT22;38192;50.102;19.884;2022-07-29T15:22:40;30.20;56.60
52231;DHT22;38192;50.102;19.884;2022-07-29T15:25:08;30.20;56.60
52231;DHT22;38192;50.102;19.884;2022-07-29T15:27:34;30.10;56.90
52231;DHT22;38192;50.102;19.884;2022-07-29T15:30:00;30.00;57.10
52231;DHT22;38192;50.102;19.884;2022-07-29T15:32:26;30.00;57.20
52231;DHT22;38192;50.102;19.884;2022-07-29T15:34:52;29.90;57.20
52231;DHT22;38192;50.102;19.884;2022-07-29T15:37:17;29.80;57.00
52231;DHT22;38192;50.102;19.884;2022-07-29T15:39:43;29.70;57.00
52231;DHT22;38192;50.102;19.884;2022-07-29T15:42:09;29.70;57.10
52231;DHT22;38192;50.102;19.884;2022-07-29T15:44:35;29.60;57.20
52231;DHT22;38192;50.102;19.884;2022-07-29T15:47:01;29.60;57.40
52231;DHT22;38192;50.102;19.884;2022-07-29T15:49:39;29.50;57.60
52231;DHT22;38192;50.102;19.884;2022-07-29T15:52:09;29.50;57.60
52231;DHT22;38192;50.102;19.884;2022-07-29T15:54:37;29.40;57.70
52231;DHT22;38192;50.102;19.884;2022-07-29T15:57:04;29.30;57.50
52231;DHT22;38192;50.102;19.884;2022-07-29T15:59:31;29.30;57.80
52231;DHT22;38192;50.102;19.884;2022-07-29T16:01:57;29.20;58.00
52231;DHT22;38192;50.102;19.884;2022-07-29T16:04:23;29.20;58.10
52231;DHT22;38192;50.102;19.884;2022-07-29T16:06:49;29.10;58.30
52231;DHT22;38192;50.102;19.884;2022-07-29T16:09:16;29.10;58.80
52231;DHT22;38192;50.102;19.884;2022-07-29T16:11:43;29.00;58.70
52231;DHT22;38192;50.102;19.884;2022-07-29T16:14:11;29.00;58.80